createdAt,value
2016-09-13T00:00:44.777Z,23.52
2016-09-13T00:01:45.103Z,23.51
2016-09-13T00:02:45.465Z,23.54
2016-09-13T00:03:45.396Z,23.42
2016-09-13T00:04:45.387Z,23.33
2016-09-13T00:05:45.097Z,23.38
2016-09-13T00:06:45.050Z,23.38
2016-09-13T00:07:45.378Z,23.47
2016-09-13T00:08:45.072Z,23.42
2016-09-13T00:09:45.321Z,23.4
2016-09-13T00:10:44.997Z,23.36
2016-09-13T00:11:45.315Z,23.33
2016-09-13T00:12:44.987Z,23.42
2016-09-13T00:13:44.985Z,23.45
2016-09-13T00:14:45.292Z,23.32
2016-09-13T00:15:44.957Z,23.36
2016-09-13T00:16:45.314Z,23.33
2016-09-13T00:17:45.260Z,23.32
2016-09-13T00:18:45.237Z,23.35
2016-09-13T00:19:44.924Z,23.28
2016-09-13T00:20:44.965Z,23.38
2016-09-13T00:21:45.224Z,23.32
2016-09-13T00:22:44.551Z,23.35
2016-09-13T00:23:45.200Z,23.32
2016-09-13T00:24:45.169Z,23.32
2016-09-13T00:25:45.215Z,23.24
2016-09-13T00:26:44.850Z,23.13
2016-09-13T00:27:44.830Z,23.12
2016-09-13T00:28:45.136Z,23.14
2016-09-13T00:29:44.801Z,23.09
2016-09-13T00:30:45.118Z,23.21
2016-09-13T00:31:44.780Z,23.24
2016-09-13T00:32:45.093Z,23.14
2016-09-13T00:33:44.764Z,23.24
2016-09-13T00:34:44.745Z,23.21
2016-09-13T00:35:45.067Z,23.12
2016-09-13T00:36:44.743Z,23.13
2016-09-13T00:37:44.716Z,23.29
2016-09-13T00:38:45.027Z,23.25
2016-09-13T00:39:44.709Z,23.28
2016-09-13T00:40:45.005Z,23.27
2016-09-13T00:41:44.693Z,23.16
2016-09-13T00:42:44.661Z,23.17
2016-09-13T00:43:44.659Z,23.12
2016-09-13T00:44:44.348Z,23.03
2016-09-13T00:45:44.949Z,22.99
2016-09-13T00:46:44.629Z,23.12
2016-09-13T00:47:44.945Z,23.09
2016-09-13T00:48:44.592Z,23.14
2016-09-13T00:49:44.924Z,23.03
2016-09-13T00:50:44.575Z,23.09
2016-09-13T00:51:44.568Z,22.97
2016-09-13T00:52:44.889Z,22.91
2016-09-13T00:53:44.584Z,22.99
2016-09-13T00:54:44.860Z,23.06
2016-09-13T00:55:44.847Z,23.03
2016-09-13T00:56:44.827Z,23.1
2016-09-13T00:57:44.191Z,22.99
2016-09-13T00:58:44.826Z,22.87
2016-09-13T00:59:44.812Z,22.8
2016-09-13T01:00:44.799Z,22.74
2016-09-13T01:01:44.517Z,22.84
2016-09-13T01:02:44.777Z,22.8
2016-09-13T01:03:44.761Z,22.91
2016-09-13T01:04:44.120Z,22.95
2016-09-13T01:05:44.843Z,22.94
2016-09-13T01:06:44.102Z,22.94
2016-09-13T01:07:44.722Z,23.02
2016-09-13T01:08:44.705Z,22.97
2016-09-13T01:09:44.726Z,23.06
2016-09-13T01:10:44.695Z,22.98
2016-09-13T01:11:44.687Z,22.94
2016-09-13T01:12:44.678Z,22.98
2016-09-13T01:13:44.351Z,22.99
2016-09-13T01:14:44.656Z,22.92
2016-09-13T01:15:44.318Z,22.91
2016-09-13T01:16:44.627Z,23.04
2016-09-13T01:17:44.609Z,22.92
2016-09-13T01:18:44.276Z,22.94
2016-09-13T01:19:44.597Z,22.88
2016-09-13T01:20:44.261Z,22.88
2016-09-13T01:21:44.248Z,22.92
2016-09-13T01:22:44.609Z,22.89
2016-09-13T01:23:44.547Z,22.84
2016-09-13T01:24:44.548Z,22.79
2016-09-13T01:25:43.896Z,22.82
2016-09-13T01:26:43.880Z,22.84
2016-09-13T01:27:44.183Z,22.8
2016-09-13T01:28:44.179Z,22.8
2016-09-13T01:29:44.163Z,22.76
2016-09-13T01:30:44.735Z,22.77
2016-09-13T01:31:44.459Z,22.72
2016-09-13T01:32:44.467Z,22.73
2016-09-13T01:33:44.450Z,22.74
2016-09-13T01:34:44.113Z,22.73
2016-09-13T01:35:44.112Z,22.76
2016-09-13T01:36:44.407Z,22.74
2016-09-13T01:37:44.408Z,22.73
2016-09-13T01:38:43.748Z,22.74
2016-09-13T01:39:44.381Z,22.58
2016-09-13T01:40:44.389Z,22.73
2016-09-13T01:41:44.371Z,22.65
2016-09-13T01:42:44.360Z,22.66
2016-09-13T01:43:44.027Z,22.62
2016-09-13T01:44:44.328Z,22.73
2016-09-13T01:45:43.987Z,22.66
2016-09-13T01:46:44.306Z,22.66
2016-09-13T01:47:44.289Z,22.66
2016-09-13T01:48:43.971Z,22.65
2016-09-13T01:49:43.633Z,22.69
2016-09-13T01:50:43.948Z,22.69
2016-09-13T01:51:44.257Z,22.65
2016-09-13T01:52:44.233Z,22.62
2016-09-13T01:53:43.911Z,22.66
2016-09-13T01:54:43.897Z,22.69
2016-09-13T01:55:44.220Z,22.69
2016-09-13T01:56:44.201Z,22.76
2016-09-13T01:57:43.869Z,22.69
2016-09-13T01:58:44.184Z,22.65
2016-09-13T01:59:43.829Z,22.61
2016-09-13T02:00:43.515Z,22.59
2016-09-13T02:01:44.150Z,22.65
2016-09-13T02:02:43.487Z,22.62
2016-09-13T02:03:43.800Z,22.51
2016-09-13T02:04:44.117Z,22.55
2016-09-13T02:05:44.114Z,22.4
2016-09-13T02:06:44.085Z,22.51
2016-09-13T02:07:43.548Z,22.45
2016-09-13T02:08:44.067Z,22.45
2016-09-13T02:09:44.152Z,22.43
2016-09-13T02:10:43.725Z,22.42
2016-09-13T02:11:43.720Z,22.43
2016-09-13T02:12:44.015Z,22.42
2016-09-13T02:13:43.800Z,22.4
2016-09-13T02:14:43.697Z,22.35
2016-09-13T02:15:44.008Z,22.33
2016-09-13T02:16:43.352Z,22.4
2016-09-13T02:17:43.649Z,22.33
2016-09-13T02:18:43.961Z,22.29
2016-09-13T02:19:43.976Z,22.29
2016-09-13T02:20:43.291Z,22.22
2016-09-13T02:21:43.605Z,22.29
2016-09-13T02:22:43.595Z,22.27
2016-09-13T02:23:43.595Z,22.27
2016-09-13T02:24:43.897Z,22.17
2016-09-13T02:25:43.906Z,22.17
2016-09-13T02:26:43.540Z,22.12
2016-09-13T02:27:43.867Z,22.03
2016-09-13T02:28:43.848Z,22.05
2016-09-13T02:29:43.836Z,22.05
2016-09-13T02:30:43.507Z,22.17
2016-09-13T02:31:43.500Z,22.12
2016-09-13T02:32:43.817Z,22.12
2016-09-13T02:33:43.808Z,22.08
2016-09-13T02:34:43.782Z,22.18
2016-09-13T02:35:43.443Z,22.12
2016-09-13T02:36:43.446Z,22.14
2016-09-13T02:37:43.749Z,22.2
2016-09-13T02:38:43.739Z,22.03
2016-09-13T02:39:43.419Z,22.06
2016-09-13T02:40:43.726Z,22.14
2016-09-13T02:41:43.380Z,22.08
2016-09-13T02:42:43.710Z,21.96
2016-09-13T02:43:43.359Z,21.96
2016-09-13T02:44:43.339Z,21.95
2016-09-13T02:45:43.650Z,21.93
2016-09-13T02:46:43.329Z,21.92
2016-09-13T02:47:43.324Z,21.93
2016-09-13T02:48:43.308Z,22
2016-09-13T02:49:43.617Z,21.95
2016-09-13T02:50:43.286Z,21.95
2016-09-13T02:51:43.256Z,21.93
2016-09-13T02:52:43.576Z,22.08
2016-09-13T02:53:43.297Z,21.92
2016-09-13T02:54:43.230Z,21.9
2016-09-13T02:55:43.538Z,21.81
2016-09-13T02:56:42.938Z,21.59
2016-09-13T02:57:43.185Z,21.58
2016-09-13T02:58:43.195Z,21.65
2016-09-13T02:59:43.297Z,21.62
2016-09-13T03:00:43.483Z,21.59
2016-09-13T03:01:43.518Z,21.61
2016-09-13T03:02:43.233Z,21.68
2016-09-13T03:03:43.144Z,21.71
2016-09-13T03:04:43.180Z,21.81
2016-09-13T03:05:43.112Z,21.71
2016-09-13T03:06:43.109Z,21.73
2016-09-13T03:07:43.093Z,21.86
2016-09-13T03:08:43.409Z,21.74
2016-09-13T03:09:43.400Z,21.81
2016-09-13T03:10:43.477Z,21.81
2016-09-13T03:11:43.397Z,21.76
2016-09-13T03:12:43.352Z,21.61
2016-09-13T03:13:43.026Z,21.52
2016-09-13T03:14:43.039Z,21.49
2016-09-13T03:15:42.987Z,21.46
2016-09-13T03:16:43.011Z,21.33
2016-09-13T03:17:43.301Z,21.34
2016-09-13T03:18:42.968Z,21.25
2016-09-13T03:19:43.321Z,21.33
2016-09-13T03:20:42.947Z,21.43
2016-09-13T03:21:42.981Z,21.58
2016-09-13T03:22:43.236Z,21.52
2016-09-13T03:23:42.904Z,21.58
2016-09-13T03:24:43.212Z,21.58
2016-09-13T03:25:42.895Z,21.58
2016-09-13T03:26:43.196Z,21.68
2016-09-13T03:27:43.174Z,21.61
2016-09-13T03:28:42.846Z,21.65
2016-09-13T03:29:43.146Z,21.59
2016-09-13T03:30:43.182Z,21.73
2016-09-13T03:31:42.821Z,21.73
2016-09-13T03:32:42.785Z,21.77
2016-09-13T03:33:43.183Z,21.8
2016-09-13T03:34:43.096Z,21.71
2016-09-13T03:35:43.096Z,21.7
2016-09-13T03:36:43.077Z,21.71
2016-09-13T03:37:42.739Z,21.61
2016-09-13T03:38:43.052Z,21.64
2016-09-13T03:39:42.722Z,21.61
2016-09-13T03:40:43.024Z,21.59
2016-09-13T03:41:43.018Z,21.68
2016-09-13T03:42:42.808Z,21.68
2016-09-13T03:43:42.995Z,21.66
2016-09-13T03:44:42.670Z,21.68
2016-09-13T03:45:42.654Z,21.7
2016-09-13T03:46:42.965Z,21.59
2016-09-13T03:47:42.957Z,21.61
2016-09-13T03:48:42.939Z,21.46
2016-09-13T03:49:42.608Z,21.5
2016-09-13T03:50:42.908Z,21.54
2016-09-13T03:51:42.898Z,21.46
2016-09-13T03:52:42.576Z,21.47
2016-09-13T03:53:42.888Z,21.4
2016-09-13T03:54:42.549Z,21.43
2016-09-13T03:55:42.852Z,21.44
2016-09-13T03:56:42.849Z,21.52
2016-09-13T03:57:42.826Z,21.49
2016-09-13T03:58:42.811Z,21.44
2016-09-13T03:59:42.486Z,21.5
2016-09-13T04:00:42.474Z,21.52
2016-09-13T04:01:42.795Z,21.56
2016-09-13T04:02:42.791Z,21.43
2016-09-13T04:03:42.753Z,21.49
2016-09-13T04:04:42.744Z,21.52
2016-09-13T04:05:42.413Z,21.43
2016-09-13T04:06:42.090Z,21.22
2016-09-13T04:07:42.388Z,21.22
2016-09-13T04:08:42.052Z,21.26
2016-09-13T04:09:42.761Z,21.26
2016-09-13T04:10:42.728Z,21.18
2016-09-13T04:11:42.678Z,21.28
2016-09-13T04:12:42.668Z,21.18
2016-09-13T04:13:42.010Z,21.17
2016-09-13T04:14:42.322Z,21.22
2016-09-13T04:15:42.621Z,21.39
2016-09-13T04:16:42.615Z,21.43
2016-09-13T04:17:42.609Z,21.37
2016-09-13T04:18:42.267Z,21.47
2016-09-13T04:19:42.627Z,21.41
2016-09-13T04:20:42.247Z,21.47
2016-09-13T04:21:42.231Z,21.39
2016-09-13T04:22:42.219Z,21.44
2016-09-13T04:23:42.203Z,21.44
2016-09-13T04:24:42.515Z,21.39
2016-09-13T04:25:42.504Z,21.43
2016-09-13T04:26:42.175Z,21.43
2016-09-13T04:27:42.160Z,21.43
2016-09-13T04:28:42.157Z,21.36
2016-09-13T04:29:42.140Z,21.37
2016-09-13T04:30:42.121Z,21.5
2016-09-13T04:31:42.426Z,21.46
2016-09-13T04:32:42.416Z,21.4
2016-09-13T04:33:42.111Z,21.44
2016-09-13T04:34:42.093Z,21.49
2016-09-13T04:35:42.398Z,21.44
2016-09-13T04:36:42.053Z,21.43
2016-09-13T04:37:42.040Z,21.41
2016-09-13T04:38:42.346Z,21.43
2016-09-13T04:39:42.340Z,21.37
2016-09-13T04:40:42.017Z,21.43
2016-09-13T04:41:42.307Z,21.43
2016-09-13T04:42:41.987Z,21.43
2016-09-13T04:43:41.648Z,21.36
2016-09-13T04:44:42.283Z,21.28
2016-09-13T04:45:42.266Z,21.29
2016-09-13T04:46:42.249Z,21.41
2016-09-13T04:47:42.244Z,21.37
2016-09-13T04:48:42.229Z,21.33
2016-09-13T04:49:41.904Z,21.25
2016-09-13T04:50:41.895Z,21.34
2016-09-13T04:51:42.206Z,21.25
2016-09-13T04:52:41.861Z,21.24
2016-09-13T04:53:41.854Z,21.28
2016-09-13T04:54:42.170Z,21.28
2016-09-13T04:55:41.528Z,21.26
2016-09-13T04:56:41.828Z,21.34
2016-09-13T04:57:41.810Z,21.21
2016-09-13T04:58:42.102Z,21.37
2016-09-13T04:59:42.094Z,21.29
2016-09-13T05:00:41.796Z,21.17
2016-09-13T05:01:41.432Z,21.17
2016-09-13T05:02:41.754Z,21.19
2016-09-13T05:03:41.737Z,21.22
2016-09-13T05:04:41.412Z,21.22
2016-09-13T05:05:42.021Z,21.28
2016-09-13T05:06:42.035Z,21.24
2016-09-13T05:07:41.998Z,21.25
2016-09-13T05:08:41.662Z,21.31
2016-09-13T05:09:41.656Z,21.36
2016-09-13T05:10:41.966Z,21.43
2016-09-13T05:11:41.960Z,21.41
2016-09-13T05:12:41.960Z,21.4
2016-09-13T05:13:41.931Z,21.41
2016-09-13T05:14:41.621Z,21.43
2016-09-13T05:15:41.579Z,21.46
2016-09-13T05:16:41.890Z,21.4
2016-09-13T05:17:41.579Z,21.41
2016-09-13T05:18:41.680Z,21.46
2016-09-13T05:19:41.530Z,21.41
2016-09-13T05:20:41.599Z,21.39
2016-09-13T05:21:41.530Z,21.44
2016-09-13T05:22:41.610Z,21.41
2016-09-13T05:23:41.491Z,21.37
2016-09-13T05:24:41.874Z,21.25
2016-09-13T05:25:41.805Z,21.24
2016-09-13T05:26:41.482Z,21.17
2016-09-13T05:27:41.860Z,21.22
2016-09-13T05:28:41.770Z,21.26
2016-09-13T05:29:41.450Z,21.19
2016-09-13T05:30:41.418Z,21.31
2016-09-13T05:31:41.716Z,21.28
2016-09-13T05:32:41.101Z,21.34
2016-09-13T05:33:41.703Z,21.25
2016-09-13T05:34:41.693Z,21.36
2016-09-13T05:35:41.679Z,21.37
2016-09-13T05:36:41.350Z,21.46
2016-09-13T05:37:41.341Z,21.33
2016-09-13T05:38:41.933Z,21.34
2016-09-13T05:39:41.631Z,21.37
2016-09-13T05:40:41.284Z,21.4
2016-09-13T05:41:41.611Z,21.49
2016-09-13T05:42:41.270Z,21.46
2016-09-13T05:43:41.263Z,21.46
2016-09-13T05:44:41.239Z,21.58
2016-09-13T05:45:41.571Z,21.56
2016-09-13T05:46:41.239Z,21.56
2016-09-13T05:47:41.222Z,21.59
2016-09-13T05:48:40.883Z,21.56
2016-09-13T05:49:41.507Z,21.61
2016-09-13T05:50:41.170Z,21.5
2016-09-13T05:51:41.199Z,21.43
2016-09-13T05:52:41.488Z,21.46
2016-09-13T05:53:41.142Z,21.39
2016-09-13T05:54:41.159Z,21.43
2016-09-13T05:55:41.442Z,21.41
2016-09-13T05:56:41.443Z,21.41
2016-09-13T05:57:40.777Z,21.52
2016-09-13T05:58:41.407Z,21.52
2016-09-13T05:59:41.081Z,21.58
2016-09-13T06:00:41.060Z,21.55
2016-09-13T06:01:41.064Z,21.58
2016-09-13T06:02:41.150Z,21.55
2016-09-13T06:03:41.020Z,21.52
2016-09-13T06:04:41.332Z,21.41
2016-09-13T06:05:41.319Z,21.41
2016-09-13T06:06:41.011Z,21.39
2016-09-13T06:07:41.299Z,21.5
2016-09-13T06:08:40.975Z,21.43
2016-09-13T06:09:41.281Z,21.44
2016-09-13T06:10:40.953Z,21.49
2016-09-13T06:11:41.248Z,21.49
2016-09-13T06:12:40.920Z,21.5
2016-09-13T06:13:41.232Z,21.55
2016-09-13T06:14:41.230Z,21.61
2016-09-13T06:15:41.210Z,21.66
2016-09-13T06:16:41.208Z,21.7
2016-09-13T06:17:40.856Z,21.81
2016-09-13T06:18:41.191Z,21.79
2016-09-13T06:19:40.835Z,21.83
2016-09-13T06:20:41.145Z,21.8
2016-09-13T06:21:41.150Z,21.86
2016-09-13T06:22:40.825Z,21.96
2016-09-13T06:23:41.108Z,22.05
2016-09-13T06:24:41.159Z,22.12
2016-09-13T06:25:40.762Z,22.08
2016-09-13T06:26:41.083Z,22.2
2016-09-13T06:27:40.747Z,22.24
2016-09-13T06:28:40.769Z,22.29
2016-09-13T06:29:41.051Z,22.37
2016-09-13T06:30:40.719Z,22.42
2016-09-13T06:31:41.023Z,22.33
2016-09-13T06:32:41.025Z,22.42
2016-09-13T06:33:40.684Z,22.48
2016-09-13T06:34:40.999Z,22.47
2016-09-13T06:35:40.989Z,22.66
2016-09-13T06:36:40.967Z,22.65
2016-09-13T06:37:40.647Z,22.73
2016-09-13T06:38:40.958Z,22.76
2016-09-13T06:39:40.605Z,22.58
2016-09-13T06:40:40.601Z,22.8
2016-09-13T06:41:40.902Z,22.8
2016-09-13T06:42:40.886Z,22.77
2016-09-13T06:43:40.577Z,22.92
2016-09-13T06:44:40.875Z,22.87
2016-09-13T06:45:40.868Z,22.87
2016-09-13T06:46:40.866Z,22.84
2016-09-13T06:47:40.211Z,22.92
2016-09-13T06:48:40.513Z,22.98
2016-09-13T06:49:40.181Z,22.97
2016-09-13T06:50:40.820Z,23.1
2016-09-13T06:51:40.480Z,23.03
2016-09-13T06:52:40.785Z,23.16
2016-09-13T06:53:40.459Z,23.25
2016-09-13T06:54:40.763Z,23.32
2016-09-13T06:55:40.122Z,23.28
2016-09-13T06:56:40.430Z,23.25
2016-09-13T06:57:40.734Z,23.29
2016-09-13T06:58:40.727Z,23.28
2016-09-13T06:59:40.399Z,23.24
2016-09-13T07:00:40.711Z,23.41
2016-09-13T07:01:40.367Z,23.32
2016-09-13T07:02:40.677Z,23.38
2016-09-13T07:03:40.673Z,23.48
2016-09-13T07:04:40.335Z,23.51
2016-09-13T07:05:40.654Z,23.65
2016-09-13T07:06:40.319Z,23.78
2016-09-13T07:07:40.296Z,23.81
2016-09-13T07:08:40.299Z,23.72
2016-09-13T07:09:40.290Z,23.63
2016-09-13T07:10:40.592Z,23.69
2016-09-13T07:11:40.587Z,23.63
2016-09-13T07:12:40.249Z,23.57
2016-09-13T07:13:40.250Z,23.7
2016-09-13T07:14:40.552Z,23.6
2016-09-13T07:15:40.214Z,23.73
2016-09-13T07:16:40.218Z,23.87
2016-09-13T07:17:40.525Z,23.96
2016-09-13T07:18:40.795Z,23.88
2016-09-13T07:19:40.183Z,23.85
2016-09-13T07:20:39.849Z,24.03
2016-09-13T07:21:40.157Z,24.12
2016-09-13T07:22:40.528Z,24.14
2016-09-13T07:23:39.844Z,24.27
2016-09-13T07:24:40.126Z,24.33
2016-09-13T07:25:39.817Z,24.39
2016-09-13T07:26:40.119Z,24.27
2016-09-13T07:27:40.111Z,24.36
2016-09-13T07:28:40.090Z,24.42
2016-09-13T07:29:40.075Z,24.49
2016-09-13T07:30:40.064Z,24.42
2016-09-13T07:31:40.379Z,24.49
2016-09-13T07:32:40.060Z,24.47
2016-09-13T07:33:40.042Z,24.55
2016-09-13T07:34:40.404Z,24.58
2016-09-13T07:35:40.027Z,24.64
2016-09-13T07:36:39.739Z,24.69
2016-09-13T07:37:40.004Z,24.75
2016-09-13T07:38:40.053Z,24.7
2016-09-13T07:39:40.308Z,24.85
2016-09-13T07:40:39.974Z,24.95
2016-09-13T07:41:39.972Z,25.03
2016-09-13T07:42:39.957Z,25.18
2016-09-13T07:43:40.263Z,25.26
2016-09-13T07:44:39.924Z,25.11
2016-09-13T07:45:40.266Z,25.33
2016-09-13T07:46:40.227Z,25.4
2016-09-13T07:47:40.229Z,25.42
2016-09-13T07:48:39.891Z,25.44
2016-09-13T07:49:39.892Z,25.62
2016-09-13T07:50:40.198Z,25.73
2016-09-13T07:51:40.193Z,25.77
2016-09-13T07:52:40.200Z,25.86
2016-09-13T07:53:39.850Z,25.81
2016-09-13T07:54:39.841Z,25.85
2016-09-13T07:55:40.144Z,25.86
2016-09-13T07:56:39.500Z,26
2016-09-13T07:57:39.816Z,25.99
2016-09-13T07:58:39.801Z,25.94
2016-09-13T07:59:40.124Z,26
2016-09-13T08:00:40.108Z,26
2016-09-13T08:01:40.091Z,26.15
2016-09-13T08:02:40.107Z,26.27
2016-09-13T08:03:39.782Z,26.37
2016-09-13T08:04:39.754Z,26.39
2016-09-13T08:05:39.794Z,26.38
2016-09-13T08:06:40.045Z,26.39
2016-09-13T08:07:40.159Z,26.6
2016-09-13T08:08:40.040Z,26.61
2016-09-13T08:09:39.714Z,26.57
2016-09-13T08:10:40.035Z,26.57
2016-09-13T08:11:39.841Z,26.52
2016-09-13T08:12:40.007Z,26.66
2016-09-13T08:13:39.680Z,26.61
2016-09-13T08:14:39.685Z,26.7
2016-09-13T08:15:39.647Z,26.7
2016-09-13T08:16:39.653Z,26.76
2016-09-13T08:17:39.970Z,26.78
2016-09-13T08:18:39.945Z,26.86
2016-09-13T08:19:39.632Z,26.88
2016-09-13T08:20:39.981Z,26.97
2016-09-13T08:21:39.629Z,26.98
2016-09-13T08:22:39.601Z,26.94
2016-09-13T08:23:39.928Z,26.97
2016-09-13T08:24:39.693Z,26.93
2016-09-13T08:25:39.253Z,26.84
2016-09-13T08:26:39.891Z,26.78
2016-09-13T08:27:39.875Z,26.75
2016-09-13T08:28:39.541Z,26.82
2016-09-13T08:29:39.862Z,26.98
2016-09-13T08:30:39.857Z,27.06
2016-09-13T08:31:40.050Z,27.09
2016-09-13T08:32:39.284Z,27.01
2016-09-13T08:33:39.505Z,27.07
2016-09-13T08:34:39.192Z,27.12
2016-09-13T08:35:39.809Z,27.16
2016-09-13T08:36:39.824Z,27.31
2016-09-13T08:37:39.795Z,27.31
2016-09-13T08:38:39.479Z,27.38
2016-09-13T08:39:39.455Z,27.57
2016-09-13T08:40:39.458Z,27.55
2016-09-13T08:41:39.126Z,27.75
2016-09-13T08:42:39.763Z,27.82
2016-09-13T08:43:39.843Z,27.82
2016-09-13T08:44:39.740Z,27.94
2016-09-13T08:45:39.738Z,28.18
2016-09-13T08:46:39.725Z,28.27
2016-09-13T08:47:39.399Z,28.19
2016-09-13T08:48:39.721Z,28.25
2016-09-13T08:49:39.377Z,28.34
2016-09-13T08:50:39.832Z,28.46
2016-09-13T08:51:39.056Z,28.52
2016-09-13T08:52:39.698Z,28.61
2016-09-13T08:53:39.380Z,28.64
2016-09-13T08:54:39.417Z,28.68
2016-09-13T08:55:39.382Z,28.65
2016-09-13T08:56:39.339Z,28.7
2016-09-13T08:57:39.341Z,28.8
2016-09-13T08:58:39.748Z,28.8
2016-09-13T08:59:39.655Z,28.84
2016-09-13T09:00:39.325Z,28.87
2016-09-13T09:01:39.287Z,28.9
2016-09-13T09:02:39.614Z,29.07
2016-09-13T09:03:39.289Z,28.93
2016-09-13T09:04:39.592Z,28.97
2016-09-13T09:05:39.578Z,28.8
2016-09-13T09:06:39.592Z,28.83
2016-09-13T09:07:39.254Z,28.95
2016-09-13T09:08:39.621Z,28.97
2016-09-13T09:09:39.255Z,29.07
2016-09-13T09:10:39.559Z,29.18
2016-09-13T09:11:39.234Z,29.28
2016-09-13T09:12:39.542Z,29.4
2016-09-13T09:13:39.222Z,29.46
2016-09-13T09:14:39.211Z,29.55
2016-09-13T09:15:39.518Z,29.33
2016-09-13T09:16:39.297Z,29.18
2016-09-13T09:17:39.505Z,29.15
2016-09-13T09:18:39.247Z,29.22
2016-09-13T09:19:39.227Z,29.07
2016-09-13T09:20:39.157Z,29.03
2016-09-13T09:21:39.152Z,28.98
2016-09-13T09:22:39.150Z,28.95
2016-09-13T09:23:39.181Z,28.92
2016-09-13T09:24:38.806Z,29.14
2016-09-13T09:25:39.116Z,29.42
2016-09-13T09:26:38.791Z,29.54
2016-09-13T09:27:39.077Z,29.66
2016-09-13T09:28:38.737Z,29.88
2016-09-13T09:29:39.322Z,29.98
2016-09-13T09:30:39.129Z,30.02
2016-09-13T09:31:39.019Z,30.11
2016-09-13T09:32:39.327Z,30.21
2016-09-13T09:33:39.016Z,30.26
2016-09-13T09:34:39.397Z,30.17
2016-09-13T09:35:39.051Z,30.33
2016-09-13T09:36:39.062Z,30.32
2016-09-13T09:37:39.448Z,30.31
2016-09-13T09:38:39.397Z,30.32
2016-09-13T09:39:39.337Z,30.48
2016-09-13T09:40:39.380Z,30.4
2016-09-13T09:41:39.447Z,30.46
2016-09-13T09:42:39.047Z,30.58
2016-09-13T09:43:38.670Z,30.43
2016-09-13T09:44:39.309Z,30.54
2016-09-13T09:45:38.984Z,30.55
2016-09-13T09:46:38.972Z,30.66
2016-09-13T09:47:38.971Z,30.83
2016-09-13T09:48:38.955Z,30.81
2016-09-13T09:49:38.970Z,30.82
2016-09-13T09:50:38.633Z,30.95
2016-09-13T09:51:39.270Z,31.04
2016-09-13T09:52:39.249Z,30.86
2016-09-13T09:53:38.947Z,31
2016-09-13T09:54:39.257Z,31.04
2016-09-13T09:55:39.251Z,31
2016-09-13T09:56:38.929Z,30.92
2016-09-13T09:57:38.918Z,31.05
2016-09-13T09:58:39.222Z,31.23
2016-09-13T09:59:38.902Z,31.27
2016-09-13T10:00:38.910Z,31.34
2016-09-13T10:01:39.217Z,31.37
2016-09-13T10:02:39.211Z,31.38
2016-09-13T10:03:39.220Z,31.45
2016-09-13T10:04:39.218Z,31.51
2016-09-13T10:05:39.190Z,31.62
2016-09-13T10:06:39.183Z,31.63
2016-09-13T10:07:39.195Z,31.48
2016-09-13T10:08:39.180Z,31.52
2016-09-13T10:09:38.860Z,31.52
2016-09-13T10:10:39.176Z,31.56
2016-09-13T10:11:38.870Z,31.66
2016-09-13T10:12:38.526Z,31.76
2016-09-13T10:13:39.168Z,31.81
2016-09-13T10:14:39.174Z,31.9
2016-09-13T10:15:38.853Z,32.08
2016-09-13T10:16:39.158Z,32.14
2016-09-13T10:17:38.822Z,32.31
2016-09-13T10:18:38.814Z,31.99
2016-09-13T10:19:38.813Z,31.97
2016-09-13T10:20:39.127Z,32.07
2016-09-13T10:21:38.813Z,32.09
2016-09-13T10:22:39.128Z,32.13
2016-09-13T10:23:38.794Z,32.29
2016-09-13T10:24:38.801Z,32.39
2016-09-13T10:25:38.797Z,32.43
2016-09-13T10:26:39.097Z,32.43
2016-09-13T10:27:38.781Z,32.53
2016-09-13T10:28:39.101Z,32.35
2016-09-13T10:29:38.771Z,32.35
2016-09-13T10:30:39.075Z,32.34
2016-09-13T10:31:39.095Z,32.42
2016-09-13T10:32:38.744Z,32.56
2016-09-13T10:33:39.073Z,32.58
2016-09-13T10:34:38.754Z,32.78
2016-09-13T10:35:39.070Z,32.87
2016-09-13T10:36:39.058Z,32.95
2016-09-13T10:37:38.734Z,33.16
2016-09-13T10:38:39.070Z,33.05
2016-09-13T10:39:38.740Z,32.82
2016-09-13T10:40:38.400Z,32.92
2016-09-13T10:41:38.722Z,32.97
2016-09-13T10:42:38.760Z,32.95
2016-09-13T10:43:39.179Z,33.03
2016-09-13T10:44:38.719Z,33.03
2016-09-13T10:45:38.698Z,33.13
2016-09-13T10:46:38.698Z,33.05
2016-09-13T10:47:39.035Z,33.01
2016-09-13T10:48:38.370Z,33.17
2016-09-13T10:49:38.690Z,33.28
2016-09-13T10:50:39.008Z,33.39
2016-09-13T10:51:38.682Z,33.55
2016-09-13T10:52:38.686Z,33.67
2016-09-13T10:53:38.992Z,33.63
2016-09-13T10:54:38.979Z,33.57
2016-09-13T10:55:38.660Z,33.6
2016-09-13T10:56:38.659Z,33.63
2016-09-13T10:57:38.340Z,33.39
2016-09-13T10:58:38.663Z,33.44
2016-09-13T10:59:38.980Z,33.47
2016-09-13T11:00:38.661Z,33.51
2016-09-13T11:01:38.953Z,33.21
2016-09-13T11:02:38.326Z,33.14
2016-09-13T11:03:38.641Z,33.37
2016-09-13T11:04:38.641Z,33.59
2016-09-13T11:05:38.643Z,33.6
2016-09-13T11:06:38.626Z,33.55
2016-09-13T11:07:38.630Z,33.72
2016-09-13T11:08:38.961Z,33.62
2016-09-13T11:09:38.612Z,33.79
2016-09-13T11:10:38.929Z,33.96
2016-09-13T11:11:38.612Z,34.03
2016-09-13T11:12:38.610Z,34.21
2016-09-13T11:13:38.610Z,34.29
2016-09-13T11:14:38.923Z,34.22
2016-09-13T11:15:38.919Z,34.16
2016-09-13T11:16:38.908Z,34.13
2016-09-13T11:17:38.898Z,34.13
2016-09-13T11:18:38.581Z,34.25
2016-09-13T11:19:38.903Z,34.23
2016-09-13T11:20:38.251Z,34.28
2016-09-13T11:21:38.580Z,34.22
2016-09-13T11:22:38.575Z,34.33
2016-09-13T11:23:38.554Z,34.52
2016-09-13T11:24:38.581Z,34.5
2016-09-13T11:25:38.570Z,34.59
2016-09-13T11:26:38.570Z,34.75
2016-09-13T11:27:38.548Z,34.73
2016-09-13T11:28:38.548Z,34.59
2016-09-13T11:29:38.548Z,34.8
2016-09-13T11:30:38.538Z,34.97
2016-09-13T11:31:38.548Z,34.98
2016-09-13T11:32:38.852Z,34.86
2016-09-13T11:33:38.524Z,34.9
2016-09-13T11:34:38.514Z,34.92
2016-09-13T11:35:38.860Z,34.9
2016-09-13T11:36:38.512Z,34.95
2016-09-13T11:37:38.521Z,34.97
2016-09-13T11:38:38.842Z,34.8
2016-09-13T11:39:38.524Z,34.73
2016-09-13T11:40:38.200Z,34.79
2016-09-13T11:41:38.507Z,34.97
2016-09-13T11:42:38.173Z,34.6
2016-09-13T11:43:38.488Z,34.67
2016-09-13T11:44:38.536Z,34.91
2016-09-13T11:45:38.497Z,35.07
2016-09-13T11:46:38.488Z,35.35
2016-09-13T11:47:38.808Z,35.5
2016-09-13T11:48:38.168Z,35.42
2016-09-13T11:49:38.487Z,35.6
2016-09-13T11:50:38.496Z,35.56
2016-09-13T11:51:38.465Z,35.63
2016-09-13T11:52:38.160Z,35.65
2016-09-13T11:53:38.810Z,35.6
2016-09-13T11:54:38.147Z,35.62
2016-09-13T11:55:38.788Z,35.75
2016-09-13T11:56:38.473Z,35.85
2016-09-13T11:57:38.466Z,35.9
2016-09-13T11:58:38.457Z,35.87
2016-09-13T11:59:38.137Z,35.92
2016-09-13T12:00:38.770Z,36.13
2016-09-13T12:01:38.457Z,36.15
2016-09-13T12:02:38.431Z,36.15
2016-09-13T12:03:38.775Z,36.22
2016-09-13T12:04:38.767Z,36.2
2016-09-13T12:05:38.427Z,36.29
2016-09-13T12:06:38.443Z,36.26
2016-09-13T12:07:38.442Z,36.38
2016-09-13T12:08:38.443Z,36.29
2016-09-13T12:09:38.752Z,36.26
2016-09-13T12:10:38.435Z,36.3
2016-09-13T12:11:38.433Z,36.41
2016-09-13T12:12:38.736Z,36.49
2016-09-13T12:13:38.745Z,36.49
2016-09-13T12:14:38.732Z,36.6
2016-09-13T12:15:38.421Z,36.59
2016-09-13T12:16:38.082Z,36.61
2016-09-13T12:17:38.743Z,36.56
2016-09-13T12:18:38.419Z,36.59
2016-09-13T12:19:38.737Z,36.7
2016-09-13T12:20:38.401Z,36.4
2016-09-13T12:21:38.398Z,36.49
2016-09-13T12:22:38.071Z,36.51
2016-09-13T12:23:38.725Z,36.23
2016-09-13T12:24:38.724Z,36.2
2016-09-13T12:25:38.724Z,36.06
2016-09-13T12:26:38.721Z,36.14
2016-09-13T12:27:38.075Z,36.29
2016-09-13T12:28:38.700Z,36.49
2016-09-13T12:29:38.386Z,36.6
2016-09-13T12:30:38.385Z,36.78
2016-09-13T12:31:38.689Z,36.22
2016-09-13T12:32:38.694Z,36.14
2016-09-13T12:33:38.370Z,36.26
2016-09-13T12:34:38.378Z,36.22
2016-09-13T12:35:38.689Z,36.04
2016-09-13T12:36:38.370Z,35.84
2016-09-13T12:37:38.359Z,35.6
2016-09-13T12:38:38.689Z,35.7
2016-09-13T12:39:38.373Z,35.81
2016-09-13T12:40:38.689Z,35.87
2016-09-13T12:41:38.360Z,36.06
2016-09-13T12:42:38.357Z,36.18
2016-09-13T12:43:38.736Z,36.25
2016-09-13T12:44:38.347Z,36.37
2016-09-13T12:45:38.344Z,35.97
2016-09-13T12:46:38.350Z,35.83
2016-09-13T12:47:38.341Z,35.72
2016-09-13T12:48:38.346Z,35.58
2016-09-13T12:49:38.351Z,35.35
2016-09-13T12:50:38.017Z,35.16
2016-09-13T12:51:38.016Z,35.09
2016-09-13T12:52:38.645Z,35.27
2016-09-13T12:53:37.999Z,35.34
2016-09-13T12:54:38.316Z,35.56
2016-09-13T12:55:37.997Z,35.92